createdAt,value
2022-10-17T00:00:45.031Z,100276.66
2022-10-17T00:03:11.869Z,100273.56
2022-10-17T00:05:47.223Z,100284.59
2022-10-17T00:08:16.556Z,100275.66
2022-10-17T00:10:43.670Z,100282.06
2022-10-17T00:13:11.912Z,100265.19
2022-10-17T00:15:38.707Z,100276.94
2022-10-17T00:18:05.348Z,100277.94
2022-10-17T00:20:35.605Z,100266.53
2022-10-17T00:23:02.241Z,100287.06
2022-10-17T00:25:28.917Z,100270.38
2022-10-17T00:27:55.808Z,100274.25
2022-10-17T00:30:22.606Z,100286.34
2022-10-17T00:32:49.254Z,100293.16
2022-10-17T00:35:15.984Z,100301.69
2022-10-17T00:37:42.737Z,100296.31
2022-10-17T00:40:10.260Z,100292.00
2022-10-17T00:42:37.742Z,100298.59
2022-10-17T00:45:08.205Z,100297.97
2022-10-17T00:47:36.719Z,100294.66
2022-10-17T00:50:06.679Z,100291.09
2022-10-17T00:52:34.123Z,100268.19
2022-10-17T00:55:09.378Z,100258.44
2022-10-17T00:57:36.206Z,100281.28
2022-10-17T01:00:08.420Z,100300.25
2022-10-17T01:02:35.458Z,100271.97
2022-10-17T01:05:02.453Z,100309.25
2022-10-17T01:07:33.300Z,100282.88
2022-10-17T01:10:05.183Z,100321.13
2022-10-17T01:12:46.261Z,100320.03
2022-10-17T01:15:21.587Z,100323.53
2022-10-17T01:18:08.690Z,100323.59
2022-10-17T01:21:12.993Z,100338.25
2022-10-17T01:24:02.186Z,100332.03
2022-10-17T01:26:56.709Z,100332.69
2022-10-17T01:29:46.803Z,100333.16
2022-10-17T01:32:37.197Z,100336.25
2022-10-17T01:35:19.293Z,100327.63
2022-10-17T01:38:13.370Z,100337.72
2022-10-17T01:40:44.478Z,100340.38
2022-10-17T01:43:23.439Z,100323.41
2022-10-17T01:45:57.188Z,100333.88
2022-10-17T01:48:29.710Z,100336.19
2022-10-17T01:51:05.920Z,100329.94
2022-10-17T01:53:37.001Z,100299.78
2022-10-17T01:56:08.437Z,100332.69
2022-10-17T01:58:44.139Z,100317.84
2022-10-17T02:01:13.017Z,100306.56
2022-10-17T02:03:43.594Z,100299.22
2022-10-17T02:06:10.422Z,100313.16
2022-10-17T02:08:45.140Z,100281.00
2022-10-17T02:11:18.987Z,100311.22
2022-10-17T02:16:52.953Z,100293.88
2022-10-17T02:19:46.334Z,100307.28
2022-10-17T02:22:18.477Z,100323.22
2022-10-17T02:24:48.048Z,100319.25
2022-10-17T02:27:21.612Z,100322.72
2022-10-17T02:30:03.121Z,100329.16
2022-10-17T02:33:01.866Z,100328.34
2022-10-17T02:35:32.940Z,100325.94
2022-10-17T02:38:00.773Z,100308.72
2022-10-17T02:40:30.709Z,100323.22
2022-10-17T02:42:59.970Z,100334.75
2022-10-17T02:45:30.382Z,100329.09
2022-10-17T02:48:03.334Z,100331.91
2022-10-17T02:50:45.882Z,100337.72
2022-10-17T02:53:27.162Z,100322.75
2022-10-17T02:55:59.256Z,100314.16
2022-10-17T02:58:32.752Z,100331.66
2022-10-17T03:01:01.078Z,100304.06
2022-10-17T03:03:31.535Z,100320.84
2022-10-17T03:06:01.453Z,100257.03
2022-10-17T03:08:28.215Z,100326.16
2022-10-17T03:10:56.151Z,100325.13
2022-10-17T03:13:23.382Z,100330.06
2022-10-17T03:15:50.226Z,100334.94
2022-10-17T03:18:17.096Z,100339.03
2022-10-17T03:20:44.774Z,100335.28
2022-10-17T03:23:11.663Z,100331.50
2022-10-17T03:25:38.565Z,100321.13
2022-10-17T03:28:05.572Z,100342.31
2022-10-17T03:30:33.660Z,100338.00
2022-10-17T03:33:00.551Z,100323.44
2022-10-17T03:35:27.787Z,100327.59
2022-10-17T03:37:55.667Z,100331.97
2022-10-17T03:40:23.398Z,100331.78
2022-10-17T03:42:50.087Z,100339.59
2022-10-17T03:45:16.923Z,100337.75
2022-10-17T03:47:44.455Z,100340.59
2022-10-17T03:50:11.267Z,100341.75
2022-10-17T03:52:38.844Z,100338.00
2022-10-17T03:55:05.918Z,100345.16
2022-10-17T03:57:35.015Z,100349.81
2022-10-17T04:00:02.085Z,100338.72
2022-10-17T04:02:29.895Z,100352.28
2022-10-17T04:04:57.534Z,100359.25
2022-10-17T04:07:24.226Z,100366.03
2022-10-17T04:09:50.884Z,100368.31
2022-10-17T04:12:19.593Z,100361.34
2022-10-17T04:14:46.685Z,100345.53
2022-10-17T04:17:14.389Z,100352.94
2022-10-17T04:19:41.107Z,100363.75
2022-10-17T04:22:08.615Z,100371.88
2022-10-17T04:24:37.614Z,100377.88
2022-10-17T04:27:24.215Z,100344.88
2022-10-17T04:29:50.988Z,100376.06
2022-10-17T04:32:25.962Z,100376.03
2022-10-17T04:35:00.968Z,100374.22
2022-10-17T04:37:30.199Z,100381.09
2022-10-17T04:39:57.560Z,100358.09
2022-10-17T04:42:24.208Z,100380.75
2022-10-17T04:44:53.198Z,100384.34
2022-10-17T04:47:22.097Z,100387.25
2022-10-17T04:49:48.910Z,100392.38
2022-10-17T04:52:16.474Z,100387.53
2022-10-17T04:54:44.800Z,100355.97
2022-10-17T04:57:13.514Z,100377.72
2022-10-17T04:59:42.359Z,100382.31
2022-10-17T05:02:21.254Z,100374.69
2022-10-17T05:04:47.939Z,100383.56
2022-10-17T05:07:15.627Z,100382.56
2022-10-17T05:09:45.239Z,100379.63
2022-10-17T05:12:12.313Z,100377.25
2022-10-17T05:14:42.595Z,100321.47
2022-10-17T05:17:09.275Z,100380.25
2022-10-17T05:19:37.167Z,100364.63
2022-10-17T05:22:04.618Z,100380.88
2022-10-17T05:24:31.364Z,100388.81
2022-10-17T05:26:58.143Z,100388.97
2022-10-17T05:29:24.887Z,100386.09
2022-10-17T05:31:59.715Z,100381.56
2022-10-17T05:34:26.591Z,100355.31
2022-10-17T05:36:53.542Z,100386.31
2022-10-17T05:39:23.321Z,100360.25
2022-10-17T05:41:52.402Z,100386.72
2022-10-17T05:44:19.393Z,100392.63
2022-10-17T05:46:52.391Z,100401.91
2022-10-17T05:49:32.531Z,100400.81
2022-10-17T05:52:01.591Z,100386.78
2022-10-17T05:54:32.714Z,100395.53
2022-10-17T05:57:00.661Z,100402.31
2022-10-17T05:59:30.767Z,100411.25
2022-10-17T06:02:03.210Z,100403.75
2022-10-17T06:04:30.425Z,100409.88
2022-10-17T06:06:57.272Z,100412.19
2022-10-17T06:09:24.464Z,100419.16
2022-10-17T06:11:53.778Z,100423.50
2022-10-17T06:14:20.664Z,100423.22
2022-10-17T06:16:50.818Z,100413.28
2022-10-17T06:19:17.605Z,100397.09
2022-10-17T06:21:46.323Z,100434.13
2022-10-17T06:24:15.823Z,100431.28
2022-10-17T06:26:43.187Z,100423.16
2022-10-17T06:29:12.394Z,100424.97
2022-10-17T06:31:51.144Z,100401.88
2022-10-17T06:34:18.887Z,100448.41
2022-10-17T06:36:46.373Z,100433.00
2022-10-17T06:39:13.263Z,100438.41
2022-10-17T06:41:58.554Z,100440.41
2022-10-17T06:44:40.312Z,100417.84
2022-10-17T06:47:30.212Z,100445.78
2022-10-17T06:49:59.506Z,100449.38
2022-10-17T06:52:34.748Z,100454.47
2022-10-17T06:55:31.939Z,100455.75
2022-10-17T06:58:20.945Z,100456.22
2022-10-17T07:03:43.749Z,100453.72
2022-10-17T07:06:11.845Z,100456.13
2022-10-17T07:08:45.139Z,100462.09
2022-10-17T07:11:18.938Z,100456.38
2022-10-17T07:13:45.862Z,100461.28
2022-10-17T07:16:13.928Z,100454.31
2022-10-17T07:18:42.212Z,100454.13
2022-10-17T07:21:09.365Z,100471.88
2022-10-17T07:23:38.517Z,100468.19
2022-10-17T07:26:11.426Z,100453.75
2022-10-17T07:28:42.060Z,100459.53
2022-10-17T07:31:25.713Z,100469.00
2022-10-17T07:33:52.450Z,100469.09
2022-10-17T07:36:19.934Z,100464.63
2022-10-17T07:38:47.205Z,100461.25
2022-10-17T07:41:17.868Z,100471.94
2022-10-17T07:43:47.721Z,100467.94
2022-10-17T07:46:16.266Z,100470.53
2022-10-17T07:48:43.453Z,100435.00
2022-10-17T07:51:10.623Z,100457.34
2022-10-17T07:53:38.905Z,100471.78
2022-10-17T07:56:09.693Z,100437.44
2022-10-17T07:58:37.732Z,100466.50
2022-10-17T08:01:14.718Z,100469.00
2022-10-17T08:03:44.207Z,100467.97
2022-10-17T08:06:11.468Z,100465.88
2022-10-17T08:08:38.217Z,100467.50
2022-10-17T08:11:07.416Z,100457.94
2022-10-17T08:13:34.702Z,100476.84
2022-10-17T08:16:03.376Z,100473.03
2022-10-17T08:18:30.540Z,100473.56
2022-10-17T08:21:01.350Z,100480.22
2022-10-17T08:23:28.559Z,100473.63
2022-10-17T08:25:58.399Z,100468.97
2022-10-17T08:28:25.234Z,100457.13
2022-10-17T08:30:52.007Z,100464.56
2022-10-17T08:33:18.704Z,100402.75
2022-10-17T08:35:45.434Z,100452.91
2022-10-17T08:38:13.395Z,100462.91
2022-10-17T08:40:42.808Z,100455.81
2022-10-17T08:43:45.629Z,100450.81
2022-10-17T08:46:12.817Z,100458.25
2022-10-17T08:48:46.289Z,100432.09
2022-10-17T08:51:23.295Z,100451.47
2022-10-17T08:54:15.460Z,100456.63
2022-10-17T08:56:49.609Z,100438.31
2022-10-17T08:59:30.689Z,100438.63
2022-10-17T09:02:30.973Z,100450.97
2022-10-17T09:05:22.569Z,100454.91
2022-10-17T09:08:09.122Z,100466.66
2022-10-17T09:10:44.604Z,100450.97
2022-10-17T09:16:25.011Z,100461.25
2022-10-17T09:19:01.170Z,100463.56
2022-10-17T09:21:43.145Z,100477.97
2022-10-17T09:24:16.342Z,100442.50
2022-10-17T09:26:46.110Z,100461.38
2022-10-17T09:29:21.733Z,100451.22
2022-10-17T09:32:01.663Z,100465.00
2022-10-17T09:34:31.156Z,100426.94
2022-10-17T09:36:59.894Z,100460.03
2022-10-17T09:39:29.204Z,100458.06
2022-10-17T09:41:59.098Z,100460.63
2022-10-17T09:44:36.051Z,100470.84
2022-10-17T09:47:14.692Z,100476.53
2022-10-17T09:49:44.162Z,100485.97
2022-10-17T09:52:14.250Z,100481.31
2022-10-17T09:55:21.358Z,100472.00
2022-10-17T09:58:00.171Z,100488.66
2022-10-17T10:00:33.127Z,100495.22
2022-10-17T10:03:10.108Z,100488.34
2022-10-17T10:05:36.868Z,100474.06
2022-10-17T10:08:11.477Z,100494.13
2022-10-17T10:10:42.954Z,100472.56
2022-10-17T10:13:22.152Z,100460.94
2022-10-17T10:15:50.678Z,100475.38
2022-10-17T10:18:32.351Z,100489.97
2022-10-17T10:21:17.380Z,100495.38
2022-10-17T10:23:45.928Z,100519.13
2022-10-17T10:26:22.263Z,100512.91
2022-10-17T10:28:56.650Z,100499.56
2022-10-17T10:31:30.281Z,100521.63
2022-10-17T10:33:59.187Z,100480.03
2022-10-17T10:36:26.162Z,100508.53
2022-10-17T10:39:01.227Z,100492.16
2022-10-17T10:41:47.412Z,100504.66
2022-10-17T10:44:15.557Z,100507.09
2022-10-17T10:46:42.274Z,100515.91
2022-10-17T10:49:29.585Z,100520.47
2022-10-17T10:52:00.400Z,100512.63
2022-10-17T10:54:42.318Z,100511.91
2022-10-17T10:57:19.879Z,100490.75
2022-10-17T11:00:12.427Z,100507.59
2022-10-17T11:03:17.448Z,100514.41
2022-10-17T11:05:59.239Z,100499.66
2022-10-17T11:08:50.196Z,100506.25
2022-10-17T11:11:39.327Z,100506.44
2022-10-17T11:14:21.219Z,100501.50
2022-10-17T11:17:01.012Z,100500.13
2022-10-17T11:19:59.424Z,100503.28
2022-10-17T11:22:38.410Z,100504.63
2022-10-17T11:25:17.851Z,100489.03
2022-10-17T11:27:44.462Z,100481.19
2022-10-17T11:30:15.176Z,100503.50
2022-10-17T11:32:49.789Z,100484.16
2022-10-17T11:35:40.339Z,100499.09
2022-10-17T11:38:21.263Z,100491.25
2022-10-17T11:40:54.393Z,100511.34
2022-10-17T11:43:29.362Z,100509.47
2022-10-17T11:46:01.913Z,100511.16
2022-10-17T11:48:48.685Z,100498.09
2022-10-17T11:54:09.757Z,100519.03
2022-10-17T11:56:44.976Z,100501.59
2022-10-17T11:59:45.723Z,100514.38
2022-10-17T12:02:29.148Z,100500.19
2022-10-17T12:05:31.942Z,100506.81
2022-10-17T12:08:12.543Z,100506.78
2022-10-17T12:10:49.695Z,100511.28
2022-10-17T12:13:28.411Z,100519.84
2022-10-17T12:15:56.053Z,100511.66
2022-10-17T12:18:29.286Z,100504.75
2022-10-17T12:20:58.566Z,100513.59
2022-10-17T12:23:30.684Z,100518.09
2022-10-17T12:26:06.418Z,100514.81
2022-10-17T12:28:46.753Z,100517.00
2022-10-17T12:31:16.281Z,100517.53
2022-10-17T12:33:46.106Z,100518.16
2022-10-17T12:36:18.786Z,100520.03
2022-10-17T12:38:49.970Z,100521.22
2022-10-17T12:41:37.343Z,100523.31
2022-10-17T12:44:12.923Z,100518.50
2022-10-17T12:46:49.725Z,100509.22
2022-10-17T12:49:34.451Z,100514.44
2022-10-17T12:52:06.016Z,100507.06
2022-10-17T12:54:47.771Z,100506.50
2022-10-17T12:57:44.143Z,100510.63
2022-10-17T13:00:25.332Z,100500.28
2022-10-17T13:02:54.645Z,100503.53
2022-10-17T13:05:40.255Z,100501.91
2022-10-17T13:08:14.834Z,100498.09
2022-10-17T13:10:49.113Z,100501.53
2022-10-17T13:13:23.658Z,100505.81
2022-10-17T13:15:54.232Z,100497.50
2022-10-17T13:18:24.877Z,100493.75
2022-10-17T13:20:58.525Z,100508.97
2022-10-17T13:23:29.073Z,100506.53
2022-10-17T13:26:07.921Z,100508.38
2022-10-17T13:28:39.054Z,100507.00
2022-10-17T13:31:06.800Z,100501.28
2022-10-17T13:33:35.978Z,100508.88
2022-10-17T13:36:07.430Z,100509.31
2022-10-17T13:38:36.758Z,100505.06
2022-10-17T13:41:34.369Z,100507.25
2022-10-17T13:44:02.174Z,100509.72
2022-10-17T13:46:37.851Z,100510.19
2022-10-17T13:49:18.769Z,100518.38
2022-10-17T13:51:47.984Z,100514.38
2022-10-17T13:54:40.174Z,100522.81
2022-10-17T13:57:21.573Z,100524.97
2022-10-17T14:00:02.927Z,100514.34
2022-10-17T14:02:41.003Z,100528.19
2022-10-17T14:05:17.758Z,100525.09
2022-10-17T14:08:10.630Z,100524.78
2022-10-17T14:10:40.137Z,100525.91
2022-10-17T14:13:15.961Z,100497.84
2022-10-17T14:15:46.037Z,100516.09
2022-10-17T14:18:20.955Z,100527.28
2022-10-17T14:23:41.801Z,100501.25
2022-10-17T14:26:15.476Z,100523.03
2022-10-17T14:28:45.281Z,100531.16
2022-10-17T14:31:20.939Z,100529.53
2022-10-17T14:33:50.855Z,100528.19
2022-10-17T14:36:19.379Z,100528.88
2022-10-17T14:38:49.550Z,100523.69
2022-10-17T14:44:32.741Z,100522.03
2022-10-17T14:47:18.625Z,100506.06
2022-10-17T14:50:01.992Z,100482.41
2022-10-17T14:52:31.033Z,100499.13
2022-10-17T14:55:00.350Z,100531.19
2022-10-17T14:57:29.084Z,100518.88
2022-10-17T14:59:57.241Z,100520.22
2022-10-17T15:02:30.270Z,100525.59
2022-10-17T15:04:57.570Z,100503.75
2022-10-17T15:07:24.573Z,100496.34
2022-10-17T15:09:53.440Z,100530.91
2022-10-17T15:12:25.119Z,100497.56
2022-10-17T15:14:53.134Z,100531.28
2022-10-17T15:17:29.604Z,100518.19
2022-10-17T15:19:56.947Z,100524.25
2022-10-17T15:22:24.197Z,100525.88
2022-10-17T15:24:50.955Z,100503.97
2022-10-17T15:27:20.792Z,100535.78
2022-10-17T15:29:48.616Z,100527.03
2022-10-17T15:32:16.039Z,100518.47
2022-10-17T15:34:43.099Z,100512.81
2022-10-17T15:37:22.414Z,100529.50
2022-10-17T15:39:53.328Z,100533.25
2022-10-17T15:42:22.676Z,100537.16
2022-10-17T15:44:50.438Z,100525.72
2022-10-17T15:47:34.999Z,100537.03
2022-10-17T15:50:02.722Z,100541.00
2022-10-17T15:52:29.580Z,100527.00
2022-10-17T15:54:58.493Z,100543.81
2022-10-17T15:57:31.844Z,100548.56
2022-10-17T16:00:00.452Z,100543.00
2022-10-17T16:02:27.776Z,100542.03
2022-10-17T16:04:54.639Z,100538.03
2022-10-17T16:07:21.877Z,100549.91
2022-10-17T16:09:48.574Z,100528.97
2022-10-17T16:12:26.463Z,100532.56
2022-10-17T16:14:53.213Z,100539.69
2022-10-17T16:17:19.943Z,100541.75
2022-10-17T16:19:46.665Z,100510.22
2022-10-17T16:22:32.498Z,100522.66
2022-10-17T16:25:07.480Z,100526.69
2022-10-17T16:27:34.264Z,100561.63
2022-10-17T16:30:01.057Z,100549.22
2022-10-17T16:32:28.011Z,100550.41
2022-10-17T16:34:54.944Z,100556.84
2022-10-17T16:37:21.620Z,100544.03
2022-10-17T16:39:52.316Z,100550.25
2022-10-17T16:42:20.561Z,100558.66
2022-10-17T16:44:48.160Z,100565.66
2022-10-17T16:47:15.556Z,100563.16
2022-10-17T16:49:45.175Z,100565.22
2022-10-17T16:52:12.506Z,100586.69
2022-10-17T16:54:39.231Z,100578.00
2022-10-17T16:57:05.991Z,100588.78
2022-10-17T16:59:32.708Z,100564.88
2022-10-17T17:01:59.375Z,100591.72
2022-10-17T17:04:26.070Z,100595.94
2022-10-17T17:06:52.780Z,100568.56
2022-10-17T17:09:19.845Z,100601.97
2022-10-17T17:11:46.647Z,100607.19
2022-10-17T17:14:13.625Z,100584.59
2022-10-17T17:16:40.878Z,100605.81
2022-10-17T17:19:11.618Z,100604.03
2022-10-17T17:21:38.536Z,100590.53
2022-10-17T17:24:06.070Z,100606.22
2022-10-17T17:26:37.573Z,100603.38
2022-10-17T17:29:04.954Z,100602.38
2022-10-17T17:31:33.641Z,100590.97
2022-10-17T17:34:01.543Z,100616.50
2022-10-17T17:36:31.416Z,100605.03
2022-10-17T17:39:00.204Z,100617.25
2022-10-17T17:41:27.810Z,100608.88
2022-10-17T17:43:54.912Z,100617.56
2022-10-17T17:46:22.993Z,100627.06
2022-10-17T17:48:51.145Z,100623.00
2022-10-17T17:51:20.685Z,100639.78
2022-10-17T17:53:48.863Z,100629.50
2022-10-17T17:56:21.611Z,100636.16
2022-10-17T17:58:53.455Z,100643.16
2022-10-17T18:01:23.451Z,100636.78
2022-10-17T18:03:52.214Z,100636.81
2022-10-17T18:06:20.668Z,100647.34
2022-10-17T18:08:53.025Z,100644.66
2022-10-17T18:11:22.020Z,100615.59
2022-10-17T18:14:01.041Z,100636.63
2022-10-17T18:16:28.922Z,100652.97
2022-10-17T18:18:55.841Z,100657.03
2022-10-17T18:21:22.823Z,100634.41
2022-10-17T18:23:51.803Z,100664.69
2022-10-17T18:26:19.004Z,100661.81
2022-10-17T18:28:46.207Z,100672.75
2022-10-17T18:31:19.090Z,100679.53
2022-10-17T18:33:46.422Z,100673.16
2022-10-17T18:36:15.176Z,100673.97
2022-10-17T18:38:42.576Z,100679.53
2022-10-17T18:41:12.195Z,100676.44
2022-10-17T18:43:40.551Z,100671.69
2022-10-17T18:46:13.875Z,100671.09
2022-10-17T18:48:44.520Z,100681.81
2022-10-17T18:51:12.944Z,100672.28
2022-10-17T18:53:41.356Z,100654.16
2022-10-17T18:56:08.817Z,100676.00
2022-10-17T18:58:37.530Z,100665.09
2022-10-17T19:01:06.904Z,100677.88
2022-10-17T19:03:33.789Z,100682.41
2022-10-17T19:06:07.132Z,100671.50
2022-10-17T19:08:34.958Z,100684.25
2022-10-17T19:11:07.052Z,100690.00
2022-10-17T19:13:34.777Z,100677.44
2022-10-17T19:16:06.935Z,100661.78
2022-10-17T19:18:34.726Z,100671.25
2022-10-17T19:21:06.444Z,100657.75
2022-10-17T19:23:35.861Z,100688.44
2022-10-17T19:26:11.152Z,100676.47
2022-10-17T19:28:41.528Z,100680.00
2022-10-17T19:31:08.942Z,100676.47
2022-10-17T19:33:36.428Z,100679.53
2022-10-17T19:36:08.972Z,100661.59
2022-10-17T19:38:36.583Z,100675.84
2022-10-17T19:41:12.361Z,100677.69
2022-10-17T19:43:40.643Z,100671.72
2022-10-17T19:46:10.687Z,100683.44
2022-10-17T19:48:39.050Z,100673.75
2022-10-17T19:51:08.087Z,100684.91
2022-10-17T19:53:35.557Z,100682.03
2022-10-17T19:56:03.060Z,100679.94
2022-10-17T19:58:29.953Z,100685.53
2022-10-17T20:01:00.974Z,100675.41
2022-10-17T20:03:28.775Z,100677.91
2022-10-17T20:05:55.846Z,100669.81
2022-10-17T20:08:22.702Z,100676.81
2022-10-17T20:10:49.440Z,100674.34
2022-10-17T20:13:16.201Z,100682.59
2022-10-17T20:15:42.851Z,100680.53
2022-10-17T20:18:09.744Z,100677.03
2022-10-17T20:20:37.425Z,100663.19
2022-10-17T20:23:04.739Z,100681.53
2022-10-17T20:25:33.304Z,100653.69
2022-10-17T20:28:00.127Z,100684.97
2022-10-17T20:30:27.648Z,100694.31
2022-10-17T20:32:55.671Z,100694.84
2022-10-17T20:35:23.193Z,100706.19
2022-10-17T20:37:50.189Z,100693.63
2022-10-17T20:40:34.062Z,100712.00
2022-10-17T20:43:01.743Z,100709.78
2022-10-17T20:45:43.683Z,100698.06
2022-10-17T20:48:15.976Z,100698.91
2022-10-17T20:50:43.661Z,100697.50
2022-10-17T20:53:35.587Z,100710.88
2022-10-17T20:56:08.196Z,100719.75
2022-10-17T20:58:35.568Z,100702.00
2022-10-17T21:01:09.672Z,100717.06
2022-10-17T21:03:39.947Z,100656.78
2022-10-17T21:06:10.250Z,100705.09
2022-10-17T21:08:36.962Z,100698.06
2022-10-17T21:11:13.226Z,100706.47
2022-10-17T21:13:40.736Z,100715.69
2022-10-17T21:16:14.521Z,100711.75
2022-10-17T21:18:42.227Z,100705.56
2022-10-17T21:21:14.531Z,100724.53
2022-10-17T21:23:43.350Z,100723.31
2022-10-17T21:26:12.567Z,100717.53
2022-10-17T21:28:40.158Z,100700.13
2022-10-17T21:31:08.991Z,100717.25
2022-10-17T21:33:35.880Z,100714.22
2022-10-17T21:36:02.743Z,100729.31
2022-10-17T21:38:29.421Z,100715.81
2022-10-17T21:40:56.214Z,100726.19
2022-10-17T21:43:23.086Z,100730.53
2022-10-17T21:45:49.720Z,100716.47
2022-10-17T21:48:16.360Z,100713.91
2022-10-17T21:50:43.059Z,100715.13
2022-10-17T21:53:09.968Z,100701.31
2022-10-17T21:55:37.545Z,100711.69
2022-10-17T21:58:05.079Z,100706.97
2022-10-17T22:00:31.843Z,100712.13
2022-10-17T22:02:58.494Z,100706.47
2022-10-17T22:05:25.197Z,100687.84
2022-10-17T22:07:51.856Z,100716.69
2022-10-17T22:10:18.630Z,100700.81
2022-10-17T22:12:45.350Z,100707.91
2022-10-17T22:15:12.011Z,100695.94
2022-10-17T22:17:38.699Z,100708.22
2022-10-17T22:20:05.781Z,100709.69
2022-10-17T22:22:32.523Z,100703.81
2022-10-17T22:24:59.185Z,100711.72
2022-10-17T22:27:25.891Z,100715.22
2022-10-17T22:29:52.511Z,100696.84
2022-10-17T22:32:21.727Z,100708.41
2022-10-17T22:34:49.300Z,100708.03
2022-10-17T22:37:15.925Z,100708.66
2022-10-17T22:39:42.614Z,100704.16
2022-10-17T22:42:09.338Z,100703.69
2022-10-17T22:44:36.096Z,100703.09
2022-10-17T22:47:02.744Z,100708.66
2022-10-17T22:49:29.983Z,100705.16
2022-10-17T22:51:56.607Z,100700.66
2022-10-17T22:54:23.345Z,100698.81
2022-10-17T22:56:50.062Z,100695.50
2022-10-17T22:59:16.759Z,100692.38
2022-10-17T23:01:43.470Z,100682.84
2022-10-17T23:04:10.215Z,100669.31
2022-10-17T23:06:36.839Z,100671.75
2022-10-17T23:09:03.759Z,100673.38
2022-10-17T23:11:30.380Z,100684.09
2022-10-17T23:13:57.041Z,100666.34
2022-10-17T23:16:23.716Z,100684.44
2022-10-17T23:18:50.337Z,100698.75
2022-10-17T23:21:16.954Z,100671.78
2022-10-17T23:23:43.651Z,100680.81
2022-10-17T23:26:13.421Z,100702.22
2022-10-17T23:28:41.159Z,100705.84
2022-10-17T23:31:12.642Z,100701.88
2022-10-17T23:33:41.269Z,100688.03
2022-10-17T23:36:10.520Z,100685.25
2022-10-17T23:38:37.740Z,100697.47
2022-10-17T23:41:04.520Z,100696.44
2022-10-17T23:43:31.709Z,100688.03
2022-10-17T23:45:58.358Z,100676.94
2022-10-17T23:48:25.077Z,100678.41
2022-10-17T23:50:51.764Z,100694.88
2022-10-17T23:53:18.484Z,100696.22
2022-10-17T23:55:45.126Z,100697.50
2022-10-17T23:58:11.789Z,100701.63
